createdAt,value
2018-04-27T00:02:45.794Z,1.40
2018-04-27T00:07:46.786Z,1.67
2018-04-27T00:12:47.781Z,1.40
2018-04-27T00:17:49.555Z,1.70
2018-04-27T00:22:50.534Z,1.47
2018-04-27T00:27:52.310Z,1.90
2018-04-27T00:32:53.312Z,1.43
2018-04-27T00:37:54.321Z,1.37
2018-04-27T00:42:56.053Z,1.70
2018-04-27T00:47:57.065Z,1.53
2018-04-27T00:53:10.669Z,1.40
2018-04-27T00:58:11.737Z,1.90
2018-04-27T01:03:12.735Z,1.60
2018-04-27T01:08:13.738Z,1.30
2018-04-27T01:13:14.758Z,1.60
2018-04-27T01:18:15.745Z,1.40
2018-04-27T01:23:16.735Z,1.80
2018-04-27T01:28:18.485Z,1.83
2018-04-27T01:33:19.461Z,1.40
2018-04-27T01:38:20.456Z,1.50
2018-04-27T01:43:21.494Z,1.50
2018-04-27T01:48:23.233Z,2.03
2018-04-27T01:53:24.249Z,1.97
2018-04-27T01:58:25.294Z,1.90
2018-04-27T02:03:26.297Z,1.90
2018-04-27T02:08:27.330Z,2.17
2018-04-27T02:13:28.332Z,1.70
2018-04-27T02:18:29.313Z,1.50
2018-04-27T02:23:31.092Z,1.67
2018-04-27T02:28:32.178Z,1.70
2018-04-27T02:33:33.174Z,1.67
2018-04-27T02:38:34.169Z,1.70
2018-04-27T02:43:35.193Z,1.50
2018-04-27T02:48:36.174Z,1.50
2018-04-27T02:53:37.929Z,1.47
2018-04-27T02:58:39.014Z,1.83
2018-04-27T03:03:40.774Z,1.60
2018-04-27T03:08:42.545Z,2.00
2018-04-27T03:13:44.327Z,1.60
2018-04-27T03:18:46.085Z,1.50
2018-04-27T03:23:47.174Z,1.50
2018-04-27T03:28:48.134Z,1.90
2018-04-27T03:33:49.897Z,1.87
2018-04-27T03:38:51.686Z,2.50
2018-04-27T03:43:52.704Z,1.73
2018-04-27T03:48:53.711Z,1.57
2018-04-27T03:53:54.734Z,1.90
2018-04-27T03:58:55.709Z,1.87
2018-04-27T04:09:32.230Z,1.50
2018-04-27T04:14:33.951Z,1.80
2018-04-27T04:19:34.942Z,1.47
2018-04-27T04:24:35.963Z,2.07
2018-04-27T04:29:36.963Z,1.90
2018-04-27T04:34:37.957Z,1.80
2018-04-27T04:39:38.937Z,1.80
2018-04-27T04:44:39.917Z,1.87
2018-04-27T04:49:40.936Z,2.00
2018-04-27T04:54:41.941Z,2.00
2018-04-27T04:59:42.938Z,1.73
2018-04-27T05:04:43.910Z,2.10
2018-04-27T05:09:44.902Z,2.00
2018-04-27T05:14:45.889Z,2.00
2018-04-27T05:19:54.080Z,1.80
2018-04-27T05:24:55.075Z,1.83
2018-04-27T05:29:56.797Z,2.23
2018-04-27T05:34:57.814Z,2.43
2018-04-27T05:39:59.532Z,2.20
2018-04-27T05:45:00.513Z,2.00
2018-04-27T05:50:01.513Z,2.47
2018-04-27T05:55:02.516Z,2.03
2018-04-27T06:00:03.496Z,2.40
2018-04-27T06:05:04.474Z,2.10
2018-04-27T06:10:06.264Z,2.00
2018-04-27T06:15:07.186Z,1.97
2018-04-27T06:20:08.173Z,2.20
2018-04-27T06:25:09.154Z,2.50
2018-04-27T06:30:10.139Z,2.40
2018-04-27T06:35:11.122Z,2.40
2018-04-27T06:40:12.122Z,2.80
2018-04-27T06:45:13.134Z,2.17
2018-04-27T06:50:14.119Z,2.23
2018-04-27T06:55:15.123Z,2.40
2018-04-27T07:00:16.118Z,2.30
2018-04-27T07:05:17.943Z,2.33
2018-04-27T07:10:18.817Z,2.30
2018-04-27T07:15:19.805Z,3.03
2018-04-27T07:20:21.553Z,3.17
2018-04-27T07:25:22.546Z,2.90
2018-04-27T07:30:24.274Z,2.43
2018-04-27T07:35:25.272Z,2.10
2018-04-27T07:40:27.003Z,2.20
2018-04-27T07:45:28.006Z,2.73
2018-04-27T07:50:28.998Z,3.03
2018-04-27T07:55:29.990Z,3.20
2018-04-27T08:00:30.989Z,2.40
2018-04-27T08:05:31.999Z,3.07
2018-04-27T08:10:33.027Z,2.83
2018-04-27T08:15:34.810Z,2.90
2018-04-27T08:20:35.831Z,2.83
2018-04-27T08:25:36.844Z,2.60
2018-04-27T08:30:37.818Z,2.07
2018-04-27T08:35:38.797Z,2.37
2018-04-27T08:40:40.526Z,2.30
2018-04-27T08:45:41.530Z,2.00
2018-04-27T08:50:43.293Z,1.73
2018-04-27T08:55:44.282Z,2.40
2018-04-27T09:00:45.276Z,2.10
2018-04-27T09:05:46.253Z,1.60
2018-04-27T09:10:47.250Z,1.70
2018-04-27T09:15:48.252Z,1.13
2018-04-27T09:20:49.257Z,1.30
2018-04-27T09:25:50.985Z,1.13
2018-04-27T09:30:51.979Z,1.60
2018-04-27T09:35:53.720Z,1.20
2018-04-27T09:45:54.625Z,1.27
2018-04-27T09:50:55.610Z,1.00
2018-04-27T09:55:57.328Z,1.37
2018-04-27T10:00:58.309Z,1.10
2018-04-27T10:05:59.306Z,1.20
2018-04-27T10:11:00.294Z,1.17
2018-04-27T10:16:01.273Z,1.20
2018-04-27T10:21:02.266Z,1.30
2018-04-27T10:26:04.006Z,1.13
2018-04-27T10:31:05.096Z,1.40
2018-04-27T10:36:06.047Z,1.10
2018-04-27T10:41:07.769Z,1.30
2018-04-27T10:46:08.751Z,1.30
2018-04-27T10:51:09.761Z,1.30
2018-04-27T10:56:10.844Z,1.20
2018-04-27T11:01:11.754Z,1.33
2018-04-27T11:06:13.478Z,1.27
2018-04-27T11:11:14.452Z,1.20
2018-04-27T11:16:15.485Z,1.40
2018-04-27T11:21:17.170Z,1.23
2018-04-27T11:26:18.158Z,1.50
2018-04-27T11:31:19.151Z,1.40
2018-04-27T11:36:20.853Z,0.90
2018-04-27T11:41:21.872Z,1.50
2018-04-27T11:46:22.830Z,1.30
2018-04-27T11:51:24.565Z,1.50
2018-04-27T11:56:25.554Z,1.23
2018-04-27T12:01:27.289Z,1.20
2018-04-27T12:06:28.317Z,1.10
2018-04-27T12:11:29.310Z,1.07
2018-04-27T12:16:30.301Z,1.40
2018-04-27T12:21:32.055Z,1.20
2018-04-27T12:26:33.055Z,1.50
2018-04-27T12:31:34.175Z,1.00
2018-04-27T12:36:35.052Z,1.17
2018-04-27T12:41:36.830Z,1.23
2018-04-27T12:46:37.840Z,1.90
2018-04-27T12:51:38.837Z,1.37
2018-04-27T12:56:40.603Z,1.20
2018-04-27T13:01:42.365Z,1.40
2018-04-27T13:06:43.374Z,1.33
2018-04-27T13:11:44.414Z,1.30
2018-04-27T13:16:46.162Z,1.40
2018-04-27T13:21:47.176Z,1.63
2018-04-27T13:26:48.179Z,1.50
2018-04-27T13:31:49.914Z,1.50
2018-04-27T13:36:50.926Z,1.10
2018-04-27T13:41:52.682Z,1.70
2018-04-27T13:46:53.673Z,1.33
2018-04-27T13:51:54.675Z,1.60
2018-04-27T13:56:55.657Z,1.30
2018-04-27T14:01:56.635Z,1.13
2018-04-27T14:06:58.357Z,1.50
2018-04-27T14:11:59.341Z,1.40
2018-04-27T14:17:00.323Z,1.20
2018-04-27T14:22:02.053Z,1.30
2018-04-27T14:27:03.057Z,1.40
2018-04-27T14:32:04.822Z,1.37
2018-04-27T14:37:06.558Z,1.40
2018-04-27T14:42:07.547Z,1.50
2018-04-27T14:47:08.551Z,1.20
2018-04-27T14:52:09.550Z,1.40
2018-04-27T14:57:10.556Z,1.33
2018-04-27T15:02:11.560Z,1.30
2018-04-27T15:07:12.570Z,1.30
2018-04-27T15:12:13.603Z,1.40
2018-04-27T15:17:15.354Z,1.30
2018-04-27T15:22:16.389Z,1.10
2018-04-27T15:27:17.413Z,1.27
2018-04-27T15:32:18.411Z,1.20
2018-04-27T15:37:19.426Z,1.13
2018-04-27T15:42:20.422Z,1.20
2018-04-27T15:47:23.193Z,1.20
2018-04-27T15:52:24.161Z,1.40
2018-04-27T15:57:25.180Z,1.43
2018-04-27T16:02:26.122Z,1.40
2018-04-27T16:07:27.111Z,1.20
2018-04-27T16:12:28.085Z,1.20
2018-04-27T16:17:29.074Z,1.23
2018-04-27T16:22:30.077Z,1.20
2018-04-27T16:27:31.052Z,1.00
2018-04-27T16:32:32.034Z,1.63
2018-04-27T16:37:33.054Z,1.47
2018-04-27T16:42:34.047Z,1.33
2018-04-27T16:47:35.035Z,1.60
2018-04-27T16:52:36.783Z,1.30
2018-04-27T16:57:37.774Z,1.20
2018-04-27T17:02:38.762Z,1.40
2018-04-27T17:07:39.737Z,1.30
2018-04-27T17:12:40.737Z,1.50
2018-04-27T17:17:41.717Z,1.30
2018-04-27T17:22:43.475Z,1.20
2018-04-27T17:27:44.471Z,1.37
2018-04-27T17:32:45.442Z,1.50
2018-04-27T17:37:46.435Z,1.20
2018-04-27T17:42:47.416Z,1.70
2018-04-27T17:47:49.166Z,1.40
2018-04-27T17:52:50.157Z,1.60
2018-04-27T17:57:51.894Z,1.40
2018-04-27T18:02:52.893Z,1.47
2018-04-27T18:07:54.618Z,1.50
2018-04-27T18:12:55.680Z,2.40
2018-04-27T18:17:57.377Z,5.57
2018-04-27T18:22:58.445Z,3.40
2018-04-27T18:27:59.369Z,2.47
2018-04-27T18:33:00.373Z,2.27
2018-04-27T18:38:02.121Z,2.27
2018-04-27T18:43:03.117Z,1.57
2018-04-27T18:48:05.930Z,1.60
2018-04-27T18:53:06.925Z,1.80
2018-04-27T18:58:07.922Z,1.80
2018-04-27T19:03:09.037Z,1.90
2018-04-27T19:08:09.949Z,2.00
2018-04-27T19:13:10.967Z,2.07
2018-04-27T19:18:13.809Z,1.80
2018-04-27T19:23:16.693Z,2.33
2018-04-27T19:28:18.430Z,2.07
2018-04-27T19:33:19.434Z,1.90
2018-04-27T19:38:20.438Z,2.20
2018-04-27T19:43:21.449Z,2.20
2018-04-27T19:48:22.440Z,2.40
2018-04-27T19:53:23.461Z,2.67
2018-04-27T19:58:24.431Z,2.80
2018-04-27T20:03:25.421Z,2.50
2018-04-27T20:08:26.535Z,1.97
2018-04-27T20:13:27.445Z,2.20
2018-04-27T20:18:28.462Z,2.17
2018-04-27T20:23:30.230Z,2.10
2018-04-27T20:28:31.225Z,2.43
2018-04-27T20:33:32.289Z,2.30
2018-04-27T20:38:34.026Z,2.27
2018-04-27T20:43:35.009Z,2.10
2018-04-27T20:48:36.010Z,2.50
2018-04-27T20:59:09.323Z,2.20
2018-04-27T21:04:10.305Z,2.00
2018-04-27T21:09:11.297Z,2.23
2018-04-27T21:14:12.391Z,1.90
2018-04-27T21:19:13.288Z,2.00
2018-04-27T21:24:15.029Z,1.87
2018-04-27T21:29:16.278Z,2.30
2018-04-27T21:34:17.306Z,2.17
2018-04-27T21:39:18.313Z,2.00
2018-04-27T21:44:24.345Z,2.07
2018-04-27T21:49:25.332Z,1.73
2018-04-27T21:54:27.165Z,1.57
2018-04-27T22:05:14.441Z,1.67
2018-04-27T22:10:15.442Z,1.77
2018-04-27T22:15:16.457Z,1.77
2018-04-27T22:20:20.275Z,1.80
2018-04-27T22:25:24.849Z,1.77
2018-04-27T22:30:25.878Z,1.93
2018-04-27T22:35:31.546Z,1.80
2018-04-27T22:40:35.313Z,1.33
2018-04-27T22:45:37.366Z,1.43
2018-04-27T22:50:46.514Z,1.40
2018-04-27T22:55:47.528Z,1.80
2018-04-27T23:00:55.504Z,1.60
2018-04-27T23:05:56.490Z,1.43
2018-04-27T23:10:58.550Z,1.93
2018-04-27T23:15:59.556Z,1.40
2018-04-27T23:21:00.563Z,1.40
2018-04-27T23:26:01.583Z,1.63
2018-04-27T23:31:03.360Z,1.60
2018-04-27T23:36:05.146Z,1.67
2018-04-27T23:41:06.885Z,1.50
2018-04-27T23:46:07.874Z,1.70
2018-04-27T23:51:09.619Z,1.80
2018-04-27T23:56:10.641Z,1.70
